Houlton, ME

9:33 AM EDT on October 24, 2014 (GMT -0400)
Ludlow Road | Change Station
CLOSE
Current Station
Personal Weather Station
Location: Ludlow, ME
Elevation: 689 ft
Nearby Weather Stations

Elev 689 ft 46.15 °N, 67.95 °W | Updated 41 seconds ago

Light Rain
Light Rain Mist
42.1 °F
Feels Like 38 °F
N
6.0
Wind Variable Wind from NE
Gusts 6.9 mph

Today
High -- | Low -- °F
--% Chance of Precip.
Yesterday
High -- | Low -- °F
Precip. -- in
7:00 AM 5:29 PM
New Moon, 0% visible
Pressure 29.72 in
Visibility 4.0 miles
Clouds Overcast 300 ft
Windchill 38 °F
Dew Point 39 °F
Humidity 90%
Rainfall 0.60 in
Snow Depth Not available.
UV 0 out of 12
Pollen .10 out of 12
Ozone Good
PM2.5 Good
Flu Activity Sporadic
SPECI KHUL 241311Z AUTO 36008KT 4SM -RA BR OVC003 06/05 A2972 RMK AO2 P0001 T00560050

More Conditions Fewer Conditions

Pressure 29.72 in
Visibility 4.0 miles
Clouds Overcast 300 ft
Windchill 38 °F
Dew Point 39 °F
Humidity 90%
Rainfall 0.60 in
Snow Depth Not available.
UV 0 out of 12
Pollen .10 out of 12
Ozone Good
PM2.5 Good
Flu Activity Sporadic
SPECI KHUL 241311Z AUTO 36008KT 4SM -RA BR OVC003 06/05 A2972 RMK AO2 P0001 T00560050

More Conditions Fewer Conditions

10-Day Weather Forecast

Almanac

Astronomy

Oct. 24, 2014 Rise Set
Actual Time 7:00 AM EDT 5:29 PM EDT
Civil Twilight 6:30 AM EDT 6:00 PM EDT
Nautical Twilight 5:55 AM EDT 6:35 PM EDT
Astronomical Twilight 5:20 AM EDT 7:09 PM EDT
Moon 7:37 AM EDT 6:04 PM EDT
Length of Visible Light 11h 30m
Length of Day
10h 28m
Tomorrow will be 3m 3s shorter.
New Moon, 0% of the Moon is Illuminated
Today
New Moon
Oct 30
First Quarter
Nov 6
Full
Nov 14
Last Quarter
Nov 22
New

Today's Extremes

State Highs State Lows

Community

WunderPhotos

Upload Photos

1,764,550 photos uploaded!

WunderBlogs® & News

Nearby

Air Quality

  Air Quality AQ Index Pollutant
Yesterday Good
OZONE
Yesterday Good
PM2.5
Current Good
OZONE
Current Good
PM2.5
Friday Good
OZONE
Friday Good
PM2.5
Saturday Good
OZONE
Saturday Good
PM2.5

Snow Depth

Station Depth Elevation
No new snow has been reported.

Earthquake Activity

City Distance Mag. Time & Date
No recent earthquake activity has been reported nearby.
Minimum magnitude displayed is 2.5.

Coastal Water Temperatures

Place Temperature
No Stations Reporting

Nearby Weather Stations